createdAt,value
2022-11-05T00:02:17.647Z,9.46
2022-11-05T00:05:07.727Z,9.45
2022-11-05T00:08:00.300Z,9.42
2022-11-05T00:10:36.099Z,9.36
2022-11-05T00:13:28.060Z,9.30
2022-11-05T00:16:18.173Z,9.27
2022-11-05T00:19:06.372Z,9.27
2022-11-05T00:21:57.929Z,9.30
2022-11-05T00:24:49.166Z,9.30
2022-11-05T00:27:26.706Z,9.31
2022-11-05T00:30:00.840Z,9.29
2022-11-05T00:32:33.069Z,9.28
2022-11-05T00:35:05.989Z,9.30
2022-11-05T00:37:38.521Z,9.33
2022-11-05T00:40:14.840Z,9.34
2022-11-05T00:43:05.028Z,9.33
2022-11-05T00:45:37.962Z,9.31
2022-11-05T00:48:28.460Z,9.30
2022-11-05T00:51:00.708Z,9.27
2022-11-05T00:53:33.288Z,9.22
2022-11-05T00:56:05.916Z,9.20
2022-11-05T00:58:38.388Z,9.16
2022-11-05T01:01:11.481Z,9.14
2022-11-05T01:03:48.812Z,9.18
2022-11-05T01:06:23.627Z,9.16
2022-11-05T01:08:58.683Z,9.18
2022-11-05T01:11:37.424Z,9.19
2022-11-05T01:14:12.600Z,9.19
2022-11-05T01:16:45.538Z,9.19
2022-11-05T01:19:17.904Z,9.19
2022-11-05T01:21:50.126Z,9.20
2022-11-05T01:24:22.318Z,9.24
2022-11-05T01:26:54.509Z,9.25
2022-11-05T01:29:26.734Z,9.23
2022-11-05T01:31:59.026Z,9.20
2022-11-05T01:34:31.629Z,9.16
2022-11-05T01:37:03.824Z,9.15
2022-11-05T01:39:35.966Z,9.18
2022-11-05T01:42:16.783Z,9.17
2022-11-05T01:45:13.231Z,9.16
2022-11-05T01:48:04.747Z,9.15
2022-11-05T01:50:52.352Z,9.16
2022-11-05T01:53:31.915Z,9.17
2022-11-05T01:56:08.201Z,9.20
2022-11-05T01:58:47.108Z,9.19
2022-11-05T02:01:20.238Z,9.21
2022-11-05T02:03:54.927Z,9.20
2022-11-05T02:06:29.734Z,9.17
2022-11-05T02:09:03.155Z,9.18
2022-11-05T02:11:35.946Z,9.15
2022-11-05T02:14:08.144Z,9.14
2022-11-05T02:16:44.964Z,9.17
2022-11-05T02:19:59.265Z,9.16
2022-11-05T02:23:03.809Z,9.15
2022-11-05T02:26:01.304Z,9.17
2022-11-05T02:29:03.990Z,9.19
2022-11-05T02:31:44.428Z,9.17
2022-11-05T02:34:25.225Z,9.18
2022-11-05T02:37:06.297Z,9.17
2022-11-05T02:39:48.354Z,9.15
2022-11-05T02:42:31.958Z,9.10
2022-11-05T02:45:17.848Z,9.05
2022-11-05T02:47:59.592Z,9.01
2022-11-05T02:50:37.929Z,8.98
2022-11-05T02:53:15.089Z,9.02
2022-11-05T02:55:52.716Z,9.00
2022-11-05T02:58:25.186Z,9.00
2022-11-05T03:00:59.175Z,8.99
2022-11-05T03:03:36.079Z,8.99
2022-11-05T03:06:50.000Z,8.99
2022-11-05T03:09:46.507Z,8.99
2022-11-05T03:12:28.178Z,8.98
2022-11-05T03:15:13.506Z,8.97
2022-11-05T03:17:53.573Z,9.01
2022-11-05T03:20:32.719Z,9.05
2022-11-05T03:23:11.292Z,9.05
2022-11-05T03:25:48.024Z,9.04
2022-11-05T03:28:24.324Z,9.06
2022-11-05T03:30:58.668Z,9.11
2022-11-05T03:33:34.651Z,9.11
2022-11-05T03:36:14.196Z,9.07
2022-11-05T03:38:52.121Z,9.02
2022-11-05T03:41:26.670Z,8.99
2022-11-05T03:44:03.123Z,9.06
2022-11-05T03:46:39.916Z,9.07
2022-11-05T03:49:20.199Z,9.07
2022-11-05T03:52:00.237Z,9.08
2022-11-05T03:54:32.727Z,9.08
2022-11-05T03:57:10.034Z,9.08
2022-11-05T03:59:48.509Z,9.09
2022-11-05T04:02:23.250Z,9.12
2022-11-05T04:04:54.152Z,9.15
2022-11-05T04:07:43.936Z,9.13
2022-11-05T04:10:34.251Z,9.13
2022-11-05T04:13:24.518Z,9.14
2022-11-05T04:16:15.935Z,9.17
2022-11-05T04:18:48.211Z,9.15
2022-11-05T04:21:37.936Z,9.10
2022-11-05T04:24:12.927Z,9.07
2022-11-05T04:26:46.249Z,9.02
2022-11-05T04:29:36.176Z,9.00
2022-11-05T04:32:08.786Z,9.05
2022-11-05T04:34:41.003Z,9.05
2022-11-05T04:37:13.193Z,9.07
2022-11-05T04:39:45.538Z,9.08
2022-11-05T04:42:17.837Z,9.09
2022-11-05T04:44:50.056Z,9.11
2022-11-05T04:47:22.308Z,9.14
2022-11-05T04:49:54.497Z,9.16
2022-11-05T04:52:26.773Z,9.17
2022-11-05T04:54:59.010Z,9.16
2022-11-05T04:57:31.153Z,9.13
2022-11-05T05:00:03.943Z,9.08
2022-11-05T05:02:36.489Z,9.04
2022-11-05T05:05:09.116Z,9.03
2022-11-05T05:07:41.291Z,9.07
2022-11-05T05:10:13.581Z,9.06
2022-11-05T05:12:45.757Z,9.07
2022-11-05T05:15:18.019Z,9.08
2022-11-05T05:17:54.469Z,9.09
2022-11-05T05:20:40.611Z,9.10
2022-11-05T05:23:13.626Z,9.11
2022-11-05T05:25:46.460Z,9.13
2022-11-05T05:28:18.703Z,9.15
2022-11-05T05:30:53.639Z,9.18
2022-11-05T05:33:30.079Z,9.20
2022-11-05T05:36:07.098Z,9.19
2022-11-05T05:38:43.323Z,9.18
2022-11-05T05:41:15.696Z,9.11
2022-11-05T05:43:47.993Z,9.06
2022-11-05T05:46:20.807Z,9.04
2022-11-05T05:48:53.713Z,9.05
2022-11-05T05:51:25.958Z,9.10
2022-11-05T05:53:58.681Z,9.10
2022-11-05T05:56:30.910Z,9.11
2022-11-05T05:59:03.229Z,9.13
2022-11-05T06:01:35.853Z,9.15
2022-11-05T06:04:08.646Z,9.15
2022-11-05T06:06:40.978Z,9.14
2022-11-05T06:09:13.566Z,9.14
2022-11-05T06:11:45.812Z,9.16
2022-11-05T06:14:18.110Z,9.18
2022-11-05T06:16:50.456Z,9.21
2022-11-05T06:19:22.809Z,9.24
2022-11-05T06:21:55.023Z,9.27
2022-11-05T06:24:27.217Z,9.29
2022-11-05T06:26:59.460Z,9.28
2022-11-05T06:29:31.858Z,9.25
2022-11-05T06:32:04.078Z,9.21
2022-11-05T06:34:38.830Z,9.21
2022-11-05T06:37:10.999Z,9.26
2022-11-05T06:39:43.191Z,9.29
2022-11-05T06:42:19.325Z,9.32
2022-11-05T06:44:52.239Z,9.32
2022-11-05T06:47:24.426Z,9.30
2022-11-05T06:49:57.516Z,9.33
2022-11-05T06:52:31.390Z,9.35
2022-11-05T06:55:03.625Z,9.35
2022-11-05T06:57:38.235Z,9.40
2022-11-05T07:00:13.573Z,9.43
2022-11-05T07:02:45.889Z,9.45
2022-11-05T07:05:19.071Z,9.43
2022-11-05T07:07:51.281Z,9.46
2022-11-05T07:10:23.646Z,9.50
2022-11-05T07:12:55.805Z,9.50
2022-11-05T07:15:28.081Z,9.49
2022-11-05T07:18:01.895Z,9.49
2022-11-05T07:20:34.727Z,9.45
2022-11-05T07:23:08.911Z,9.47
2022-11-05T07:25:42.320Z,9.49
2022-11-05T07:28:15.303Z,9.51
2022-11-05T07:30:48.368Z,9.54
2022-11-05T07:33:20.535Z,9.55
2022-11-05T07:35:52.785Z,9.54
2022-11-05T07:38:25.205Z,9.54
2022-11-05T07:41:00.476Z,9.54
2022-11-05T07:43:32.663Z,9.54
2022-11-05T07:46:07.552Z,9.54
2022-11-05T07:48:42.277Z,9.53
2022-11-05T07:51:14.417Z,9.55
2022-11-05T07:53:48.333Z,9.58
2022-11-05T07:56:20.579Z,9.61
2022-11-05T07:58:52.790Z,9.67
2022-11-05T08:01:25.189Z,9.70
2022-11-05T08:03:57.563Z,9.71
2022-11-05T08:06:29.757Z,9.70
2022-11-05T08:09:02.107Z,9.63
2022-11-05T08:11:35.987Z,9.58
2022-11-05T08:14:08.310Z,9.59
2022-11-05T08:16:40.607Z,9.67
2022-11-05T08:19:13.004Z,9.70
2022-11-05T08:21:45.224Z,9.69
2022-11-05T08:24:17.519Z,9.71
2022-11-05T08:26:49.663Z,9.72
2022-11-05T08:29:22.037Z,9.73
2022-11-05T08:31:54.254Z,9.75
2022-11-05T08:34:26.583Z,9.81
2022-11-05T08:37:01.229Z,9.86
2022-11-05T08:39:33.396Z,9.89
2022-11-05T08:42:05.602Z,9.89
2022-11-05T08:44:37.837Z,9.86
2022-11-05T08:47:10.055Z,9.84
2022-11-05T08:49:42.274Z,9.83
2022-11-05T08:52:14.645Z,9.82
2022-11-05T08:54:46.865Z,9.86
2022-11-05T08:57:20.038Z,9.85
2022-11-05T08:59:52.201Z,9.84
2022-11-05T09:02:25.404Z,9.82
2022-11-05T09:04:57.688Z,9.81
2022-11-05T09:07:29.987Z,9.82
2022-11-05T09:10:02.183Z,9.83
2022-11-05T09:12:34.476Z,9.85
2022-11-05T09:15:07.329Z,9.87
2022-11-05T09:17:39.474Z,9.89
2022-11-05T09:20:14.134Z,9.91
2022-11-05T09:22:47.493Z,9.95
2022-11-05T09:25:20.180Z,9.99
2022-11-05T09:27:52.349Z,9.98
2022-11-05T09:30:24.798Z,9.98
2022-11-05T09:32:57.567Z,9.98
2022-11-05T09:35:29.749Z,9.96
2022-11-05T09:38:01.968Z,9.97
2022-11-05T09:40:38.542Z,9.96
2022-11-05T09:43:17.977Z,9.97
2022-11-05T09:45:54.242Z,10.01
2022-11-05T09:48:30.124Z,10.02
2022-11-05T09:51:02.495Z,10.00
2022-11-05T09:53:36.584Z,10.00
2022-11-05T09:56:21.252Z,10.01
2022-11-05T09:58:57.482Z,10.02
2022-11-05T10:01:33.306Z,10.06
2022-11-05T10:04:10.837Z,10.08
2022-11-05T10:06:47.989Z,10.10
2022-11-05T10:09:25.790Z,10.11
2022-11-05T10:12:02.538Z,10.10
2022-11-05T10:14:40.086Z,10.10
2022-11-05T10:17:21.395Z,10.15
2022-11-05T10:19:59.554Z,10.15
2022-11-05T10:22:31.772Z,10.18
2022-11-05T10:25:06.858Z,10.19
2022-11-05T10:27:51.564Z,10.20
2022-11-05T10:30:24.942Z,10.21
2022-11-05T10:33:01.852Z,10.23
2022-11-05T10:35:43.062Z,10.24
2022-11-05T10:38:16.835Z,10.25
2022-11-05T10:41:00.371Z,10.20
2022-11-05T10:43:39.217Z,10.16
2022-11-05T10:46:25.824Z,10.15
2022-11-05T10:49:15.299Z,10.16
2022-11-05T10:51:53.738Z,10.21
2022-11-05T10:54:32.233Z,10.22
2022-11-05T10:57:34.862Z,10.23
2022-11-05T11:00:31.660Z,10.24
2022-11-05T11:03:05.873Z,10.22
2022-11-05T11:05:40.475Z,10.22
2022-11-05T11:08:25.494Z,10.24
2022-11-05T11:11:00.554Z,10.28
2022-11-05T11:13:52.358Z,10.34
2022-11-05T11:16:26.465Z,10.41
2022-11-05T11:19:01.047Z,10.44
2022-11-05T11:21:34.292Z,10.46
2022-11-05T11:24:20.215Z,10.49
2022-11-05T11:26:52.842Z,10.59
2022-11-05T11:29:30.022Z,10.63
2022-11-05T11:32:02.925Z,10.64
2022-11-05T11:34:38.993Z,10.63
2022-11-05T11:37:19.419Z,10.62
2022-11-05T11:39:55.001Z,10.65
2022-11-05T11:42:32.136Z,10.65
2022-11-05T11:45:15.777Z,10.62
2022-11-05T11:47:50.276Z,10.63
2022-11-05T11:50:40.462Z,10.63
2022-11-05T11:53:32.238Z,10.65
2022-11-05T11:56:16.848Z,10.69
2022-11-05T11:58:51.449Z,10.68
2022-11-05T12:01:46.204Z,10.67
2022-11-05T12:04:32.662Z,10.67
2022-11-05T12:07:15.288Z,10.67
2022-11-05T12:10:09.989Z,10.64
2022-11-05T12:12:51.117Z,10.60
2022-11-05T12:15:45.550Z,10.60
2022-11-05T12:18:26.888Z,10.59
2022-11-05T12:21:13.904Z,10.59
2022-11-05T12:24:11.699Z,10.65
2022-11-05T12:26:54.618Z,10.65
2022-11-05T12:29:44.479Z,10.64
2022-11-05T12:32:41.887Z,10.65
2022-11-05T12:35:29.286Z,10.66
2022-11-05T12:38:10.544Z,10.68
2022-11-05T12:40:57.153Z,10.68
2022-11-05T12:43:41.017Z,10.67
2022-11-05T12:46:25.910Z,10.65
2022-11-05T12:49:12.335Z,10.67
2022-11-05T12:51:57.663Z,10.71
2022-11-05T12:54:35.798Z,10.72
2022-11-05T12:57:11.469Z,10.71
2022-11-05T12:59:50.733Z,10.70
2022-11-05T13:02:31.710Z,10.73
2022-11-05T13:05:08.176Z,10.73
2022-11-05T13:07:46.180Z,10.71
2022-11-05T13:10:26.462Z,10.69
2022-11-05T13:13:05.388Z,10.66
2022-11-05T13:15:42.575Z,10.65
2022-11-05T13:18:20.401Z,10.68
2022-11-05T13:20:56.588Z,10.68
2022-11-05T13:23:36.589Z,10.69
2022-11-05T13:26:17.044Z,10.70
2022-11-05T13:28:57.753Z,10.72
2022-11-05T13:31:37.417Z,10.74
2022-11-05T13:34:13.294Z,10.72
2022-11-05T13:37:10.758Z,10.70
2022-11-05T13:39:49.143Z,10.68
2022-11-05T13:42:53.902Z,10.66
2022-11-05T13:45:49.570Z,10.67
2022-11-05T13:48:49.083Z,10.69
2022-11-05T13:51:39.325Z,10.65
2022-11-05T13:54:35.581Z,10.63
2022-11-05T13:57:41.032Z,10.63
2022-11-05T14:00:20.290Z,10.63
2022-11-05T14:02:56.169Z,10.60
2022-11-05T14:05:33.482Z,10.55
2022-11-05T14:08:12.940Z,10.51
2022-11-05T14:10:48.111Z,10.49
2022-11-05T14:13:28.062Z,10.46
2022-11-05T14:16:05.872Z,10.47
2022-11-05T14:18:45.376Z,10.52
2022-11-05T14:21:48.058Z,10.52
2022-11-05T14:24:43.227Z,10.53
2022-11-05T14:27:43.671Z,10.54
2022-11-05T14:30:47.059Z,10.55
2022-11-05T14:33:39.143Z,10.54
2022-11-05T14:36:40.684Z,10.52
2022-11-05T14:39:33.463Z,10.49
2022-11-05T14:42:12.887Z,10.48
2022-11-05T14:45:00.609Z,10.46
2022-11-05T14:47:35.832Z,10.49
2022-11-05T14:50:18.699Z,10.49
2022-11-05T14:52:57.038Z,10.51
2022-11-05T14:55:36.204Z,10.52
2022-11-05T14:58:29.329Z,10.50
2022-11-05T15:01:03.258Z,10.47
2022-11-05T15:04:01.266Z,10.46
2022-11-05T15:06:36.298Z,10.43
2022-11-05T15:09:35.036Z,10.42
2022-11-05T15:12:12.745Z,10.47
2022-11-05T15:14:51.990Z,10.52
2022-11-05T15:17:30.205Z,10.51
2022-11-05T15:20:10.558Z,10.50
2022-11-05T15:22:46.471Z,10.51
2022-11-05T15:25:22.837Z,10.52
2022-11-05T15:28:05.953Z,10.53
2022-11-05T15:30:38.151Z,10.51
2022-11-05T15:33:21.864Z,10.51
2022-11-05T15:35:54.145Z,10.47
2022-11-05T15:38:31.564Z,10.42
2022-11-05T15:41:06.029Z,10.37
2022-11-05T15:43:47.680Z,10.37
2022-11-05T15:46:22.453Z,10.30
2022-11-05T15:48:56.767Z,10.25
2022-11-05T15:51:30.646Z,10.23
2022-11-05T15:57:00.283Z,10.20
2022-11-05T15:59:35.187Z,10.19
2022-11-05T16:02:32.610Z,10.18
2022-11-05T16:05:11.375Z,10.14
2022-11-05T16:07:46.535Z,10.09
2022-11-05T16:10:24.721Z,10.09
2022-11-05T16:12:56.925Z,10.13
2022-11-05T16:15:34.500Z,10.10
2022-11-05T16:18:23.666Z,10.08
2022-11-05T16:21:11.001Z,10.10
2022-11-05T16:23:46.519Z,10.12
2022-11-05T16:27:01.272Z,10.12
2022-11-05T16:29:27.261Z,10.10
2022-11-05T16:32:01.247Z,10.05
2022-11-05T16:34:38.051Z,10.00
2022-11-05T16:37:14.780Z,9.98
2022-11-05T16:39:46.992Z,9.98
2022-11-05T16:42:41.435Z,10.02
2022-11-05T16:45:16.734Z,9.99
2022-11-05T16:47:49.843Z,9.99
2022-11-05T16:50:26.858Z,9.99
2022-11-05T16:52:59.118Z,10.00
2022-11-05T16:55:32.284Z,10.00
2022-11-05T16:58:04.631Z,9.97
2022-11-05T17:00:37.182Z,9.95
2022-11-05T17:03:09.428Z,9.93
2022-11-05T17:05:41.630Z,9.93
2022-11-05T17:08:14.151Z,9.93
2022-11-05T17:10:46.793Z,9.96
2022-11-05T17:13:20.456Z,9.98
2022-11-05T17:15:53.464Z,9.99
2022-11-05T17:18:26.367Z,10.00
2022-11-05T17:20:59.028Z,10.01
2022-11-05T17:23:32.739Z,10.01
2022-11-05T17:26:07.547Z,9.98
2022-11-05T17:28:38.945Z,9.94
2022-11-05T17:31:14.236Z,9.88
2022-11-05T17:33:46.890Z,9.86
2022-11-05T17:36:19.441Z,9.85
2022-11-05T17:38:51.615Z,9.89
2022-11-05T17:41:25.267Z,9.88
2022-11-05T17:43:58.536Z,9.89
2022-11-05T17:46:30.983Z,9.91
2022-11-05T17:49:03.100Z,9.94
2022-11-05T17:51:35.472Z,9.96
2022-11-05T17:54:07.923Z,10.00
2022-11-05T17:56:44.901Z,9.99
2022-11-05T17:59:17.381Z,9.99
2022-11-05T18:01:49.770Z,9.97
2022-11-05T18:04:22.230Z,9.94
2022-11-05T18:06:54.577Z,9.95
2022-11-05T18:09:27.461Z,10.01
2022-11-05T18:11:59.858Z,10.01
2022-11-05T18:14:32.308Z,10.01
2022-11-05T18:17:04.690Z,10.01
2022-11-05T18:19:38.953Z,10.02
2022-11-05T18:22:11.322Z,10.05
2022-11-05T18:24:43.517Z,10.08
2022-11-05T18:27:16.298Z,10.12
2022-11-05T18:29:48.517Z,10.12
2022-11-05T18:32:20.994Z,10.12
2022-11-05T18:34:53.289Z,10.09
2022-11-05T18:37:25.738Z,10.08
2022-11-05T18:39:58.009Z,10.11
2022-11-05T18:42:30.380Z,10.12
2022-11-05T18:45:02.954Z,10.12
2022-11-05T18:47:35.590Z,10.11
2022-11-05T18:50:11.129Z,10.11
2022-11-05T18:52:43.378Z,10.10
2022-11-05T18:55:15.759Z,10.11
2022-11-05T18:57:47.959Z,10.10
2022-11-05T19:00:20.705Z,10.08
2022-11-05T19:02:53.065Z,10.06
2022-11-05T19:05:29.899Z,10.03
2022-11-05T19:08:02.795Z,10.02
2022-11-05T19:10:35.061Z,10.05
2022-11-05T19:13:07.332Z,10.05
2022-11-05T19:15:42.633Z,10.05
2022-11-05T19:18:14.947Z,10.06
2022-11-05T19:20:47.320Z,10.06
2022-11-05T19:23:19.488Z,10.08
2022-11-05T19:25:51.655Z,10.09
2022-11-05T19:28:23.996Z,10.07
2022-11-05T19:30:56.144Z,10.06
2022-11-05T19:33:28.820Z,10.05
2022-11-05T19:36:01.082Z,10.04
2022-11-05T19:38:33.373Z,10.02
2022-11-05T19:41:08.633Z,10.05
2022-11-05T19:43:42.158Z,10.06
2022-11-05T19:46:16.430Z,10.05
2022-11-05T19:48:48.771Z,10.11
2022-11-05T19:51:23.527Z,10.25
2022-11-05T19:53:56.309Z,10.07
2022-11-05T19:56:30.858Z,10.04
2022-11-05T19:59:04.075Z,9.99
2022-11-05T20:01:37.228Z,9.96
2022-11-05T20:04:12.089Z,9.93
2022-11-05T20:06:44.872Z,9.87
2022-11-05T20:09:22.675Z,9.82
2022-11-05T20:11:56.769Z,9.80
2022-11-05T20:14:29.808Z,9.76
2022-11-05T20:17:02.590Z,9.72
2022-11-05T20:19:35.528Z,9.68
2022-11-05T20:22:07.694Z,9.64
2022-11-05T20:24:39.967Z,9.60
2022-11-05T20:27:12.315Z,9.56
2022-11-05T20:29:44.508Z,9.51
2022-11-05T20:32:16.726Z,9.49
2022-11-05T20:34:48.973Z,9.48
2022-11-05T20:37:21.241Z,9.48
2022-11-05T20:39:53.461Z,9.51
2022-11-05T20:42:25.936Z,9.50
2022-11-05T20:44:59.262Z,9.51
2022-11-05T20:47:31.701Z,9.54
2022-11-05T20:50:04.794Z,9.57
2022-11-05T20:52:37.689Z,9.57
2022-11-05T20:55:11.142Z,9.53
2022-11-05T20:57:43.498Z,9.47
2022-11-05T21:00:19.200Z,9.42
2022-11-05T21:02:51.478Z,9.39
2022-11-05T21:05:23.866Z,9.37
2022-11-05T21:07:56.168Z,9.35
2022-11-05T21:10:28.466Z,9.36
2022-11-05T21:13:00.690Z,9.33
2022-11-05T21:15:33.086Z,9.28
2022-11-05T21:18:05.455Z,9.27
2022-11-05T21:20:39.981Z,9.26
2022-11-05T21:23:12.405Z,9.20
2022-11-05T21:25:45.703Z,9.16
2022-11-05T21:28:18.532Z,9.11
2022-11-05T21:30:51.163Z,9.06
2022-11-05T21:33:23.650Z,9.03
2022-11-05T21:35:55.971Z,9.07
2022-11-05T21:38:28.564Z,9.06
2022-11-05T21:41:03.394Z,9.08
2022-11-05T21:43:34.408Z,9.07
2022-11-05T21:46:07.381Z,9.03
2022-11-05T21:48:39.913Z,8.99
2022-11-05T21:51:30.394Z,8.94
2022-11-05T21:54:20.418Z,8.89
2022-11-05T21:57:11.087Z,8.89
2022-11-05T21:59:51.900Z,8.82
2022-11-05T22:02:28.532Z,8.77
2022-11-05T22:05:02.318Z,8.78
2022-11-05T22:07:38.213Z,8.78
2022-11-05T22:10:16.212Z,8.75
2022-11-05T22:12:48.794Z,8.73
2022-11-05T22:15:21.076Z,8.70
2022-11-05T22:17:53.890Z,8.64
2022-11-05T22:20:26.603Z,8.58
2022-11-05T22:22:58.877Z,8.51
2022-11-05T22:25:31.221Z,8.44
2022-11-05T22:28:03.372Z,8.38
2022-11-05T22:30:37.331Z,8.36
2022-11-05T22:33:09.491Z,8.40
2022-11-05T22:35:43.058Z,8.38
2022-11-05T22:38:15.483Z,8.37
2022-11-05T22:40:47.844Z,8.36
2022-11-05T22:43:20.011Z,8.33
2022-11-05T22:45:52.592Z,8.27
2022-11-05T22:48:24.859Z,8.23
2022-11-05T22:50:57.082Z,8.20
2022-11-05T22:53:29.296Z,8.16
2022-11-05T22:56:03.265Z,8.13
2022-11-05T22:58:36.223Z,8.10
2022-11-05T23:01:11.826Z,8.08
2022-11-05T23:03:45.781Z,8.04
2022-11-05T23:06:37.637Z,8.00
2022-11-05T23:09:34.026Z,7.98
2022-11-05T23:12:08.984Z,7.94
2022-11-05T23:14:39.562Z,7.87
2022-11-05T23:17:30.265Z,7.78
2022-11-05T23:20:25.422Z,7.69
2022-11-05T23:23:15.770Z,7.63
2022-11-05T23:25:48.064Z,7.58
2022-11-05T23:28:21.408Z,7.56
2022-11-05T23:31:11.514Z,7.58
2022-11-05T23:33:43.741Z,7.54
2022-11-05T23:36:34.215Z,7.52
2022-11-05T23:39:06.657Z,7.50
2022-11-05T23:41:56.573Z,7.46
2022-11-05T23:44:46.815Z,7.39
2022-11-05T23:47:36.904Z,7.33
2022-11-05T23:50:09.974Z,7.29
2022-11-05T23:52:42.237Z,7.27
2022-11-05T23:55:14.585Z,7.23
2022-11-05T23:57:46.804Z,7.18
